Linden, Iowa
Current Conditions -  °F | °C
As of 5:15 AM on Wednesday 26 Nov 2014 (Local Time) from KPRO Reporting Station
Light Snow Light Snow  
Wind Chill: 22°   Ceiling: 500
Heat Index: 31°   Visibility: 4mi
Dew Point: 31°   Wind: 10mph
Humidity: 100%   Direction: 110°ESE
Pressure: 29.85"   Gusts: NA
Location:  41.64°N, 94.27°W
Report Text: KPRO 261115Z AUTO 11009KT 4SM -SN OVC005 00/00 A2985 RMK AO2 T10051005
Loading
Personal Weather Stations






























Interactive Weather Map New forecast layout! Learn more

10-Day Weather Forecast

Advertisements
Track Severe Weather on mobile